This is the latest recevied weather packets stored in our database for station/object KE2GQQ. If no packets are shown the sender has not sent any weather packets the latest 10 day(s).
| Time | Temp. | Humidity | Pressure | Rain* | Wind** | Luminosity | Snow |
|---|---|---|---|---|---|---|---|
| 1777376118 | 6.67° C | 95% | 1022 hPa | 0 mm | - | 77 W/m² | - |
| 1777373116 | 5° C | 96% | 1021.8 hPa | 0 mm | - | 21 W/m² | - |
| 1777372516 | 4.44° C | 96% | 1021.8 hPa | 0 mm | - | 18 W/m² | - |
| 1777365918 | 5° C | 94% | 1022.1 hPa | 0 mm | - | 0 W/m² | - |
| 1777362319 | 5.56° C | 93% | 1022.1 hPa | 0 mm | - | 0 W/m² | - |
| 1777359916 | 5.56° C | 92% | 1022.2 hPa | 0 mm | - | 0 W/m² | - |
| 1777359316 | 5.56° C | 91% | 1022.3 hPa | 0 mm | - | 0 W/m² | - |
| 1777358117 | 5.56° C | 90% | 1022.4 hPa | 0 mm | - | 0 W/m² | - |
| 1777356938 | 6.11° C | 89% | 1022.5 hPa | 0 mm | - | 0 W/m² | - |
| 1777351516 | 7.22° C | 83% | 1023.5 hPa | 0 mm | - | 0 W/m² | - |
| 1777345517 | 8.89° C | 74% | 1024.5 hPa | 0 mm | - | 0 W/m² | - |
| 1777342518 | 10° C | 70% | 1024.7 hPa | 0 mm | - | 0 W/m² | - |
| 1777337716 | 12.22° C | 63% | 1024.7 hPa | 0 mm | - | 0 W/m² | - |
| 1777333517 | 13.89° C | 57% | 1023.8 hPa | 0 mm | - | 2 W/m² | - |
| 1777332338 | 14.44° C | 54% | 1023.5 hPa | 0 mm | - | 9 W/m² | - |
| 1777330515 | 15.56° C | 53% | 1023.3 hPa | 0 mm | - | 21 W/m² | - |
| 1777329316 | 16.67° C | 52% | 1023.3 hPa | 0 mm | - | 30 W/m² | - |
| 1777326316 | 17.78° C | 49% | 1023.2 hPa | 0 mm | - | 35 W/m² | - |
| 1777323917 | 18.89° C | 48% | 1023.1 hPa | 0 mm | - | 39 W/m² | - |
| 1777314936 | 20° C | 43% | 1023.5 hPa | 0 mm | - | 653 W/m² | - |
| 1777307718 | 18.33° C | 46% | 1024.1 hPa | 0 mm | - | 528 W/m² | - |
| 1777301117 | 16.67° C | 55% | 1024.4 hPa | 0 mm | - | 727 W/m² | - |
| 1777298717 | 16.11° C | 59% | 1024.1 hPa | 0 mm | - | 602 W/m² | - |
| 1777295718 | 13.89° C | 65% | 1023.7 hPa | 0 mm | - | 562 W/m² | - |
| 1777293315 | 12.22° C | 73% | 1023.4 hPa | 0 mm | - | 421 W/m² | - |
* Rain latest hour (hover to see other rain measurements)
** Current wind speed in m/s (hover to see current wind gust speed)